Surface Data

81.5 °F / 27.5 °C
E at 21 MPH
76%
73.4°F / 23.0 °C
29.86" (1011 mb)
10 mile(s)
partly cloudy
2021.01.20 1300 UTC

Surface Data

Raw METARs

2021/01/20 13:00
PKWA 201300Z AUTO 08018KT 10SM SCT026 SCT037 SCT050 28/23 A2986 RMK AO2 T02750230

Translated METAR

Kwajalein, Bucholz AAF, Kwajalein KMR ATOL Airport, Marshall Islands (PKWA) 08-43N 167-44E 2M
Jan 20, 2021 - 08:00 AM EST / 2021.01.20 1300 UTC
Wind: from the E (080 degrees) at 21 MPH (18 KT):0
Visibility: 10 mile(s):0
Sky conditions: partly cloudy
Temperature: 81.5 F (27.5 C)
Dew Point: 73.4 F (23.0 C)
Relative Humidity: 76%
Pressure (altimeter): 29.86 in. Hg (1011 hPa)
ob: PKWA 201300Z AUTO 08018KT 10SM SCT026 SCT037 SCT050 28/23 A2986 RMK AO2 T02750230
cycle: 13